sensor_id;sensor_type;location;lat;lon;timestamp;temperature;humidity
38209;DHT22;24016;52.102;11.584;2022-09-27T00:02:15;11.10;99.90
38209;DHT22;24016;52.102;11.584;2022-09-27T00:04:41;11.20;99.90
38209;DHT22;24016;52.102;11.584;2022-09-27T00:07:06;11.20;99.90
38209;DHT22;24016;52.102;11.584;2022-09-27T00:09:32;11.20;99.90
38209;DHT22;24016;52.102;11.584;2022-09-27T00:11:59;11.20;99.90
38209;DHT22;24016;52.102;11.584;2022-09-27T00:14:24;11.30;99.90
38209;DHT22;24016;52.102;11.584;2022-09-27T00:16:50;11.30;99.90
38209;DHT22;24016;52.102;11.584;2022-09-27T00:19:18;11.30;99.90
38209;DHT22;24016;52.102;11.584;2022-09-27T00:21:45;11.30;99.90
38209;DHT22;24016;52.102;11.584;2022-09-27T00:24:16;11.40;99.90
38209;DHT22;24016;52.102;11.584;2022-09-27T00:26:43;11.40;99.90
38209;DHT22;24016;52.102;11.584;2022-09-27T00:29:09;11.40;99.90
38209;DHT22;24016;52.102;11.584;2022-09-27T00:31:36;11.50;99.90
38209;DHT22;24016;52.102;11.584;2022-09-27T00:34:03;11.40;99.90
38209;DHT22;24016;52.102;11.584;2022-09-27T00:36:30;11.40;99.90
38209;DHT22;24016;52.102;11.584;2022-09-27T00:38:57;11.40;99.90
38209;DHT22;24016;52.102;11.584;2022-09-27T00:41:33;11.30;99.90
38209;DHT22;24016;52.102;11.584;2022-09-27T00:44:52;11.20;99.90
38209;DHT22;24016;52.102;11.584;2022-09-27T00:46:48;11.10;99.90
38209;DHT22;24016;52.102;11.584;2022-09-27T00:49:54;10.90;99.90
38209;DHT22;24016;52.102;11.584;2022-09-27T00:52:16;11.00;99.90
38209;DHT22;24016;52.102;11.584;2022-09-27T00:54:46;10.90;99.90
38209;DHT22;24016;52.102;11.584;2022-09-27T00:57:12;10.80;99.90
38209;DHT22;24016;52.102;11.584;2022-09-27T00:59:46;10.70;99.90
38209;DHT22;24016;52.102;11.584;2022-09-27T01:02:14;10.60;99.90
38209;DHT22;24016;52.102;11.584;2022-09-27T01:04:40;10.50;99.90
38209;DHT22;24016;52.102;11.584;2022-09-27T01:07:06;10.30;99.90
38209;DHT22;24016;52.102;11.584;2022-09-27T01:09:32;10.20;99.90
38209;DHT22;24016;52.102;11.584;2022-09-27T01:12:22;10.20;99.90
38209;DHT22;24016;52.102;11.584;2022-09-27T01:15:12;10.20;99.90
38209;DHT22;24016;52.102;11.584;2022-09-27T01:23:38;10.20;99.90
38209;DHT22;24016;52.102;11.584;2022-09-27T01:40:01;10.30;99.90
38209;DHT22;24016;52.102;11.584;2022-09-27T01:42:45;10.20;99.90
38209;DHT22;24016;52.102;11.584;2022-09-27T01:45:46;10.20;99.90
38209;DHT22;24016;52.102;11.584;2022-09-27T01:48:22;10.20;99.90
38209;DHT22;24016;52.102;11.584;2022-09-27T01:51:18;10.30;99.90
38209;DHT22;24016;52.102;11.584;2022-09-27T01:53:48;10.30;99.90
38209;DHT22;24016;52.102;11.584;2022-09-27T01:56:31;10.30;99.90
38209;DHT22;24016;52.102;11.584;2022-09-27T01:59:04;10.20;99.90
38209;DHT22;24016;52.102;11.584;2022-09-27T02:01:31;10.20;99.90
38209;DHT22;24016;52.102;11.584;2022-09-27T02:04:00;10.20;99.90
38209;DHT22;24016;52.102;11.584;2022-09-27T02:06:32;10.20;99.90
38209;DHT22;24016;52.102;11.584;2022-09-27T02:09:25;10.20;99.90
38209;DHT22;24016;52.102;11.584;2022-09-27T02:11:56;10.20;99.90
38209;DHT22;24016;52.102;11.584;2022-09-27T02:14:32;10.20;99.90
38209;DHT22;24016;52.102;11.584;2022-09-27T02:17:07;10.10;99.90
38209;DHT22;24016;52.102;11.584;2022-09-27T02:19:52;10.20;99.90
38209;DHT22;24016;52.102;11.584;2022-09-27T02:22:38;10.10;99.90
38209;DHT22;24016;52.102;11.584;2022-09-27T02:25:23;10.10;99.90
38209;DHT22;24016;52.102;11.584;2022-09-27T02:27:58;10.00;99.90
38209;DHT22;24016;52.102;11.584;2022-09-27T02:30:26;10.00;99.90
38209;DHT22;24016;52.102;11.584;2022-09-27T02:32:52;10.00;99.90
38209;DHT22;24016;52.102;11.584;2022-09-27T02:35:26;10.00;99.90
38209;DHT22;24016;52.102;11.584;2022-09-27T02:37:54;10.00;99.90
38209;DHT22;24016;52.102;11.584;2022-09-27T02:40:20;10.00;99.90
38209;DHT22;24016;52.102;11.584;2022-09-27T02:42:46;10.10;99.90
38209;DHT22;24016;52.102;11.584;2022-09-27T02:45:13;10.10;99.90
38209;DHT22;24016;52.102;11.584;2022-09-27T02:47:50;10.00;99.90
38209;DHT22;24016;52.102;11.584;2022-09-27T02:50:43;10.00;99.90
38209;DHT22;24016;52.102;11.584;2022-09-27T02:53:54;10.00;99.90
38209;DHT22;24016;52.102;11.584;2022-09-27T03:02:07;9.90;99.90
38209;DHT22;24016;52.102;11.584;2022-09-27T03:04:43;9.90;99.90
38209;DHT22;24016;52.102;11.584;2022-09-27T03:07:10;9.90;99.90
38209;DHT22;24016;52.102;11.584;2022-09-27T03:09:48;9.80;99.90
38209;DHT22;24016;52.102;11.584;2022-09-27T03:12:15;9.80;99.90
38209;DHT22;24016;52.102;11.584;2022-09-27T03:14:47;9.80;99.90
38209;DHT22;24016;52.102;11.584;2022-09-27T03:17:12;9.70;99.90
38209;DHT22;24016;52.102;11.584;2022-09-27T03:19:38;9.70;99.90
38209;DHT22;24016;52.102;11.584;2022-09-27T03:22:03;9.70;99.90
38209;DHT22;24016;52.102;11.584;2022-09-27T03:24:29;9.70;99.90
38209;DHT22;24016;52.102;11.584;2022-09-27T03:26:54;9.60;99.90
38209;DHT22;24016;52.102;11.584;2022-09-27T03:29:20;9.70;99.90
38209;DHT22;24016;52.102;11.584;2022-09-27T03:31:45;9.60;99.90
38209;DHT22;24016;52.102;11.584;2022-09-27T03:34:11;9.60;99.90
38209;DHT22;24016;52.102;11.584;2022-09-27T03:36:36;9.60;99.90
38209;DHT22;24016;52.102;11.584;2022-09-27T03:39:02;9.50;99.90
38209;DHT22;24016;52.102;11.584;2022-09-27T03:41:28;9.60;99.90
38209;DHT22;24016;52.102;11.584;2022-09-27T03:43:53;9.60;99.90
38209;DHT22;24016;52.102;11.584;2022-09-27T03:46:22;9.50;99.90
38209;DHT22;24016;52.102;11.584;2022-09-27T03:48:47;9.50;99.90
38209;DHT22;24016;52.102;11.584;2022-09-27T03:51:13;9.50;99.90
38209;DHT22;24016;52.102;11.584;2022-09-27T03:53:39;9.50;99.90
38209;DHT22;24016;52.102;11.584;2022-09-27T03:56:04;9.50;99.90
38209;DHT22;24016;52.102;11.584;2022-09-27T03:58:30;9.50;99.90
38209;DHT22;24016;52.102;11.584;2022-09-27T04:00:55;9.50;99.90
38209;DHT22;24016;52.102;11.584;2022-09-27T04:03:21;9.50;99.90
38209;DHT22;24016;52.102;11.584;2022-09-27T04:05:46;9.50;99.90
38209;DHT22;24016;52.102;11.584;2022-09-27T04:08:12;9.50;99.90
38209;DHT22;24016;52.102;11.584;2022-09-27T04:10:38;9.50;99.90
38209;DHT22;24016;52.102;11.584;2022-09-27T04:13:04;9.50;99.90
38209;DHT22;24016;52.102;11.584;2022-09-27T04:15:30;9.50;99.90
38209;DHT22;24016;52.102;11.584;2022-09-27T04:17:55;9.50;99.90
38209;DHT22;24016;52.102;11.584;2022-09-27T04:20:21;9.50;99.90
38209;DHT22;24016;52.102;11.584;2022-09-27T04:22:46;9.50;99.90
38209;DHT22;24016;52.102;11.584;2022-09-27T04:25:12;9.50;99.90
38209;DHT22;24016;52.102;11.584;2022-09-27T04:27:43;9.50;99.90
38209;DHT22;24016;52.102;11.584;2022-09-27T04:30:10;9.50;99.90
38209;DHT22;24016;52.102;11.584;2022-09-27T04:32:40;9.40;99.90
38209;DHT22;24016;52.102;11.584;2022-09-27T04:35:06;9.50;99.90
38209;DHT22;24016;52.102;11.584;2022-09-27T04:37:50;9.40;99.90
38209;DHT22;24016;52.102;11.584;2022-09-27T04:40:15;9.40;99.90
38209;DHT22;24016;52.102;11.584;2022-09-27T04:42:41;9.40;99.90
38209;DHT22;24016;52.102;11.584;2022-09-27T04:45:07;9.40;99.90
38209;DHT22;24016;52.102;11.584;2022-09-27T04:47:33;9.40;99.90
38209;DHT22;24016;52.102;11.584;2022-09-27T04:49:59;9.40;99.90
38209;DHT22;24016;52.102;11.584;2022-09-27T04:52:24;9.40;99.90
38209;DHT22;24016;52.102;11.584;2022-09-27T04:54:50;9.40;99.90
38209;DHT22;24016;52.102;11.584;2022-09-27T04:57:16;9.40;99.90
38209;DHT22;24016;52.102;11.584;2022-09-27T04:59:42;9.40;99.90
38209;DHT22;24016;52.102;11.584;2022-09-27T05:02:07;9.50;99.90
38209;DHT22;24016;52.102;11.584;2022-09-27T05:04:33;9.40;99.90
38209;DHT22;24016;52.102;11.584;2022-09-27T05:06:58;9.40;99.90
38209;DHT22;24016;52.102;11.584;2022-09-27T05:09:24;9.40;99.90
38209;DHT22;24016;52.102;11.584;2022-09-27T05:11:49;9.40;99.90
38209;DHT22;24016;52.102;11.584;2022-09-27T05:14:15;9.40;99.90
38209;DHT22;24016;52.102;11.584;2022-09-27T05:16:40;9.30;99.90
38209;DHT22;24016;52.102;11.584;2022-09-27T05:19:06;9.30;99.90
38209;DHT22;24016;52.102;11.584;2022-09-27T05:21:32;9.30;99.90
38209;DHT22;24016;52.102;11.584;2022-09-27T05:23:57;9.30;99.90
38209;DHT22;24016;52.102;11.584;2022-09-27T05:26:24;9.30;99.90
38209;DHT22;24016;52.102;11.584;2022-09-27T05:28:49;9.30;99.90
38209;DHT22;24016;52.102;11.584;2022-09-27T05:31:15;9.30;99.90
38209;DHT22;24016;52.102;11.584;2022-09-27T05:33:41;9.30;99.90
38209;DHT22;24016;52.102;11.584;2022-09-27T05:36:07;9.30;99.90
38209;DHT22;24016;52.102;11.584;2022-09-27T05:38:33;9.30;99.90
38209;DHT22;24016;52.102;11.584;2022-09-27T05:40:59;9.30;99.90
38209;DHT22;24016;52.102;11.584;2022-09-27T05:43:25;9.40;99.90
38209;DHT22;24016;52.102;11.584;2022-09-27T05:45:52;9.40;99.90
38209;DHT22;24016;52.102;11.584;2022-09-27T05:48:18;9.40;99.90
38209;DHT22;24016;52.102;11.584;2022-09-27T05:50:44;9.40;99.90
38209;DHT22;24016;52.102;11.584;2022-09-27T05:53:10;9.50;99.90
38209;DHT22;24016;52.102;11.584;2022-09-27T05:55:36;9.50;99.90
38209;DHT22;24016;52.102;11.584;2022-09-27T05:58:04;9.60;99.90
38209;DHT22;24016;52.102;11.584;2022-09-27T06:00:30;9.60;99.90
38209;DHT22;24016;52.102;11.584;2022-09-27T06:02:58;9.60;99.90
38209;DHT22;24016;52.102;11.584;2022-09-27T06:05:26;9.70;99.90
38209;DHT22;24016;52.102;11.584;2022-09-27T06:07:58;9.80;99.90
38209;DHT22;24016;52.102;11.584;2022-09-27T06:10:24;9.80;99.90
38209;DHT22;24016;52.102;11.584;2022-09-27T06:12:50;9.80;99.90
38209;DHT22;24016;52.102;11.584;2022-09-27T06:15:15;9.90;99.90
38209;DHT22;24016;52.102;11.584;2022-09-27T06:17:41;9.90;99.90
38209;DHT22;24016;52.102;11.584;2022-09-27T06:20:08;9.90;99.90
38209;DHT22;24016;52.102;11.584;2022-09-27T06:22:34;9.90;99.90
38209;DHT22;24016;52.102;11.584;2022-09-27T06:25:01;10.00;99.90
38209;DHT22;24016;52.102;11.584;2022-09-27T06:27:28;10.00;99.90
38209;DHT22;24016;52.102;11.584;2022-09-27T06:29:54;10.00;99.90
38209;DHT22;24016;52.102;11.584;2022-09-27T06:32:20;10.10;99.90
38209;DHT22;24016;52.102;11.584;2022-09-27T06:34:46;10.20;99.90
38209;DHT22;24016;52.102;11.584;2022-09-27T06:37:11;10.20;99.90
38209;DHT22;24016;52.102;11.584;2022-09-27T06:39:37;10.20;99.90
38209;DHT22;24016;52.102;11.584;2022-09-27T06:42:02;10.20;99.90
38209;DHT22;24016;52.102;11.584;2022-09-27T06:44:28;10.30;99.90
38209;DHT22;24016;52.102;11.584;2022-09-27T06:46:54;10.30;99.90
38209;DHT22;24016;52.102;11.584;2022-09-27T06:49:20;10.40;99.90
38209;DHT22;24016;52.102;11.584;2022-09-27T06:51:50;10.40;99.90
38209;DHT22;24016;52.102;11.584;2022-09-27T06:54:17;10.40;99.90
38209;DHT22;24016;52.102;11.584;2022-09-27T06:56:42;10.40;99.90
38209;DHT22;24016;52.102;11.584;2022-09-27T06:59:08;10.50;99.90
38209;DHT22;24016;52.102;11.584;2022-09-27T07:01:52;10.50;99.90
38209;DHT22;24016;52.102;11.584;2022-09-27T07:04:18;10.60;99.90
38209;DHT22;24016;52.102;11.584;2022-09-27T07:06:44;10.60;99.90
38209;DHT22;24016;52.102;11.584;2022-09-27T07:09:09;10.60;99.90
38209;DHT22;24016;52.102;11.584;2022-09-27T07:11:35;10.70;99.90
38209;DHT22;24016;52.102;11.584;2022-09-27T07:14:01;10.80;99.90
38209;DHT22;24016;52.102;11.584;2022-09-27T07:16:29;11.00;99.90
38209;DHT22;24016;52.102;11.584;2022-09-27T07:18:56;11.20;99.90
38209;DHT22;24016;52.102;11.584;2022-09-27T07:21:22;11.40;99.90
38209;DHT22;24016;52.102;11.584;2022-09-27T07:23:48;11.60;99.90
38209;DHT22;24016;52.102;11.584;2022-09-27T07:26:14;11.60;99.90
38209;DHT22;24016;52.102;11.584;2022-09-27T07:28:40;11.70;99.90
38209;DHT22;24016;52.102;11.584;2022-09-27T07:31:08;11.80;99.90
38209;DHT22;24016;52.102;11.584;2022-09-27T07:33:34;11.80;99.90
38209;DHT22;24016;52.102;11.584;2022-09-27T07:36:00;12.00;99.90
38209;DHT22;24016;52.102;11.584;2022-09-27T07:38:25;12.20;99.90
38209;DHT22;24016;52.102;11.584;2022-09-27T07:40:51;12.20;99.90
38209;DHT22;24016;52.102;11.584;2022-09-27T07:43:16;12.10;99.90
38209;DHT22;24016;52.102;11.584;2022-09-27T07:45:44;11.40;99.90
38209;DHT22;24016;52.102;11.584;2022-09-27T07:48:12;10.90;99.90
38209;DHT22;24016;52.102;11.584;2022-09-27T07:50:38;10.50;99.90
38209;DHT22;24016;52.102;11.584;2022-09-27T07:53:04;10.20;99.90
38209;DHT22;24016;52.102;11.584;2022-09-27T07:55:29;10.10;99.90
38209;DHT22;24016;52.102;11.584;2022-09-27T07:58:09;10.00;99.90
38209;DHT22;24016;52.102;11.584;2022-09-27T08:00:35;10.00;99.90
38209;DHT22;24016;52.102;11.584;2022-09-27T08:03:10;10.00;99.90
38209;DHT22;24016;52.102;11.584;2022-09-27T08:05:38;10.00;99.90
38209;DHT22;24016;52.102;11.584;2022-09-27T08:08:03;10.00;99.90
38209;DHT22;24016;52.102;11.584;2022-09-27T08:10:30;10.00;99.90
38209;DHT22;24016;52.102;11.584;2022-09-27T08:12:57;10.10;99.90
38209;DHT22;24016;52.102;11.584;2022-09-27T08:15:23;10.20;99.90
38209;DHT22;24016;52.102;11.584;2022-09-27T08:17:49;10.20;99.90
38209;DHT22;24016;52.102;11.584;2022-09-27T08:20:15;10.30;99.90
38209;DHT22;24016;52.102;11.584;2022-09-27T08:22:43;10.30;99.90
38209;DHT22;24016;52.102;11.584;2022-09-27T08:25:09;10.30;99.90
38209;DHT22;24016;52.102;11.584;2022-09-27T08:27:35;10.40;99.90
38209;DHT22;24016;52.102;11.584;2022-09-27T08:30:01;10.30;99.90
38209;DHT22;24016;52.102;11.584;2022-09-27T08:32:27;10.30;99.90
38209;DHT22;24016;52.102;11.584;2022-09-27T08:34:55;10.30;99.90
38209;DHT22;24016;52.102;11.584;2022-09-27T08:37:20;10.20;99.90
38209;DHT22;24016;52.102;11.584;2022-09-27T08:39:46;10.20;99.90
38209;DHT22;24016;52.102;11.584;2022-09-27T08:42:32;10.20;99.90
38209;DHT22;24016;52.102;11.584;2022-09-27T08:47:41;10.20;99.90
38209;DHT22;24016;52.102;11.584;2022-09-27T08:50:25;10.20;99.90
38209;DHT22;24016;52.102;11.584;2022-09-27T08:52:59;10.10;99.90
38209;DHT22;24016;52.102;11.584;2022-09-27T08:55:44;10.20;99.90
38209;DHT22;24016;52.102;11.584;2022-09-27T08:58:29;10.30;99.90
38209;DHT22;24016;52.102;11.584;2022-09-27T09:01:00;10.30;99.90
38209;DHT22;24016;52.102;11.584;2022-09-27T09:03:29;10.30;99.90
38209;DHT22;24016;52.102;11.584;2022-09-27T09:11:58;10.40;99.90
38209;DHT22;24016;52.102;11.584;2022-09-27T09:15:05;10.60;99.90
38209;DHT22;24016;52.102;11.584;2022-09-27T09:17:54;10.60;99.90
38209;DHT22;24016;52.102;11.584;2022-09-27T09:20:42;10.50;99.90
38209;DHT22;24016;52.102;11.584;2022-09-27T09:23:32;10.60;99.90
38209;DHT22;24016;52.102;11.584;2022-09-27T09:26:23;10.60;99.90
38209;DHT22;24016;52.102;11.584;2022-09-27T09:34:16;10.50;99.90
38209;DHT22;24016;52.102;11.584;2022-09-27T09:36:54;10.50;99.90
38209;DHT22;24016;52.102;11.584;2022-09-27T09:39:33;10.50;99.90
38209;DHT22;24016;52.102;11.584;2022-09-27T09:42:05;10.30;99.90
38209;DHT22;24016;52.102;11.584;2022-09-27T09:47:30;10.20;99.90
38209;DHT22;24016;52.102;11.584;2022-09-27T09:50:04;10.10;99.90
38209;DHT22;24016;52.102;11.584;2022-09-27T09:52:54;10.00;99.90
38209;DHT22;24016;52.102;11.584;2022-09-27T09:55:23;10.10;99.90
38209;DHT22;24016;52.102;11.584;2022-09-27T09:58:23;10.10;99.90
38209;DHT22;24016;52.102;11.584;2022-09-27T10:00:52;10.20;99.90
38209;DHT22;24016;52.102;11.584;2022-09-27T10:03:19;10.30;99.90
38209;DHT22;24016;52.102;11.584;2022-09-27T10:05:45;10.40;99.90
38209;DHT22;24016;52.102;11.584;2022-09-27T10:08:21;10.40;99.90
38209;DHT22;24016;52.102;11.584;2022-09-27T10:10:47;10.50;99.90
38209;DHT22;24016;52.102;11.584;2022-09-27T10:13:19;10.50;99.90
38209;DHT22;24016;52.102;11.584;2022-09-27T10:15:47;10.40;99.90
38209;DHT22;24016;52.102;11.584;2022-09-27T10:18:17;10.20;99.90
38209;DHT22;24016;52.102;11.584;2022-09-27T10:20:49;9.90;99.90
38209;DHT22;24016;52.102;11.584;2022-09-27T10:23:18;9.80;99.90
38209;DHT22;24016;52.102;11.584;2022-09-27T10:26:04;9.70;99.90
38209;DHT22;24016;52.102;11.584;2022-09-27T10:28:35;9.70;99.90
38209;DHT22;24016;52.102;11.584;2022-09-27T10:31:07;9.60;99.90
38209;DHT22;24016;52.102;11.584;2022-09-27T10:33:34;9.70;99.90
38209;DHT22;24016;52.102;11.584;2022-09-27T10:36:01;9.70;99.90
38209;DHT22;24016;52.102;11.584;2022-09-27T10:38:32;9.80;99.90
38209;DHT22;24016;52.102;11.584;2022-09-27T10:41:23;9.80;99.90
38209;DHT22;24016;52.102;11.584;2022-09-27T10:43:49;9.90;99.90
38209;DHT22;24016;52.102;11.584;2022-09-27T10:46:24;9.90;99.90
38209;DHT22;24016;52.102;11.584;2022-09-27T10:49:08;10.00;99.90
38209;DHT22;24016;52.102;11.584;2022-09-27T10:51:34;10.00;99.90
38209;DHT22;24016;52.102;11.584;2022-09-27T10:54:01;10.10;99.90
38209;DHT22;24016;52.102;11.584;2022-09-27T10:56:29;10.30;99.90
38209;DHT22;24016;52.102;11.584;2022-09-27T10:58:56;10.50;99.90
38209;DHT22;24016;52.102;11.584;2022-09-27T11:01:24;10.80;99.90
38209;DHT22;24016;52.102;11.584;2022-09-27T11:03:56;11.10;99.90
38209;DHT22;24016;52.102;11.584;2022-09-27T11:08:53;11.10;99.90
38209;DHT22;24016;52.102;11.584;2022-09-27T11:11:25;11.20;99.90
38209;DHT22;24016;52.102;11.584;2022-09-27T11:17:33;11.10;99.90
38209;DHT22;24016;52.102;11.584;2022-09-27T11:20:37;11.10;99.90
38209;DHT22;24016;52.102;11.584;2022-09-27T11:23:32;10.90;99.90
38209;DHT22;24016;52.102;11.584;2022-09-27T11:29:19;11.10;99.90
38209;DHT22;24016;52.102;11.584;2022-09-27T11:37:27;10.80;99.90
38209;DHT22;24016;52.102;11.584;2022-09-27T11:40:02;10.80;99.90
38209;DHT22;24016;52.102;11.584;2022-09-27T11:42:42;10.80;99.90
38209;DHT22;24016;52.102;11.584;2022-09-27T11:45:35;11.10;99.90
38209;DHT22;24016;52.102;11.584;2022-09-27T11:54:21;11.40;99.90
38209;DHT22;24016;52.102;11.584;2022-09-27T11:57:01;11.40;99.90
38209;DHT22;24016;52.102;11.584;2022-09-27T12:02:44;11.80;99.90
38209;DHT22;24016;52.102;11.584;2022-09-27T12:08:21;12.00;99.90
38209;DHT22;24016;52.102;11.584;2022-09-27T12:11:08;11.80;99.90
38209;DHT22;24016;52.102;11.584;2022-09-27T12:13:54;11.70;99.90
38209;DHT22;24016;52.102;11.584;2022-09-27T12:16:21;12.10;99.90
38209;DHT22;24016;52.102;11.584;2022-09-27T12:18:49;12.20;99.90
38209;DHT22;24016;52.102;11.584;2022-09-27T12:21:16;12.20;99.90
38209;DHT22;24016;52.102;11.584;2022-09-27T12:23:48;12.10;99.90
38209;DHT22;24016;52.102;11.584;2022-09-27T12:26:23;12.10;99.90
38209;DHT22;24016;52.102;11.584;2022-09-27T12:34:33;12.60;99.90
38209;DHT22;24016;52.102;11.584;2022-09-27T12:37:26;12.40;99.90
38209;DHT22;24016;52.102;11.584;2022-09-27T12:40:14;12.30;99.90
38209;DHT22;24016;52.102;11.584;2022-09-27T12:42:51;12.20;99.90
38209;DHT22;24016;52.102;11.584;2022-09-27T12:45:37;12.20;99.90
38209;DHT22;24016;52.102;11.584;2022-09-27T12:48:31;12.10;99.90
38209;DHT22;24016;52.102;11.584;2022-09-27T12:51:14;12.20;99.90
38209;DHT22;24016;52.102;11.584;2022-09-27T13:05:38;12.90;99.90
38209;DHT22;24016;52.102;11.584;2022-09-27T13:08:25;13.20;99.90
38209;DHT22;24016;52.102;11.584;2022-09-27T13:13:36;13.50;99.90
38209;DHT22;24016;52.102;11.584;2022-09-27T13:16:04;13.40;99.90
38209;DHT22;24016;52.102;11.584;2022-09-27T13:21:03;13.70;99.90
38209;DHT22;24016;52.102;11.584;2022-09-27T13:44:15;12.60;99.90
38209;DHT22;24016;52.102;11.584;2022-09-27T13:47:02;12.50;99.90
38209;DHT22;24016;52.102;11.584;2022-09-27T13:49:37;12.60;99.90
38209;DHT22;24016;52.102;11.584;2022-09-27T13:54:53;12.70;99.90
38209;DHT22;24016;52.102;11.584;2022-09-27T14:00:11;12.70;99.90
38209;DHT22;24016;52.102;11.584;2022-09-27T14:03:03;12.90;99.90
38209;DHT22;24016;52.102;11.584;2022-09-27T14:05:46;12.80;99.90
38209;DHT22;24016;52.102;11.584;2022-09-27T14:08:44;12.50;99.90
38209;DHT22;24016;52.102;11.584;2022-09-27T14:11:33;12.40;99.90
38209;DHT22;24016;52.102;11.584;2022-09-27T14:14:02;12.50;99.90
38209;DHT22;24016;52.102;11.584;2022-09-27T14:16:33;12.60;99.90
38209;DHT22;24016;52.102;11.584;2022-09-27T14:19:01;12.70;99.90
38209;DHT22;24016;52.102;11.584;2022-09-27T14:21:32;12.70;99.90
38209;DHT22;24016;52.102;11.584;2022-09-27T14:24:25;12.70;99.90
38209;DHT22;24016;52.102;11.584;2022-09-27T14:29:42;12.50;99.90
38209;DHT22;24016;52.102;11.584;2022-09-27T14:32:17;12.40;99.90
38209;DHT22;24016;52.102;11.584;2022-09-27T14:34:43;12.20;99.90
38209;DHT22;24016;52.102;11.584;2022-09-27T14:37:24;12.10;99.90
38209;DHT22;24016;52.102;11.584;2022-09-27T14:40:00;12.10;99.90
38209;DHT22;24016;52.102;11.584;2022-09-27T14:42:28;12.00;99.90
38209;DHT22;24016;52.102;11.584;2022-09-27T14:45:00;12.00;99.90
38209;DHT22;24016;52.102;11.584;2022-09-27T14:47:27;12.00;99.90
38209;DHT22;24016;52.102;11.584;2022-09-27T14:49:59;11.90;99.90
38209;DHT22;24016;52.102;11.584;2022-09-27T14:52:27;11.90;99.90
38209;DHT22;24016;52.102;11.584;2022-09-27T14:54:57;11.80;99.90
38209;DHT22;24016;52.102;11.584;2022-09-27T14:57:23;11.70;99.90
38209;DHT22;24016;52.102;11.584;2022-09-27T14:59:49;11.60;99.90
38209;DHT22;24016;52.102;11.584;2022-09-27T15:02:18;11.60;99.90
38209;DHT22;24016;52.102;11.584;2022-09-27T15:04:47;11.40;99.90
38209;DHT22;24016;52.102;11.584;2022-09-27T15:07:13;11.30;99.90
38209;DHT22;24016;52.102;11.584;2022-09-27T15:09:42;11.20;99.90
38209;DHT22;24016;52.102;11.584;2022-09-27T15:12:15;11.10;99.90
38209;DHT22;24016;52.102;11.584;2022-09-27T15:14:43;11.10;99.90
38209;DHT22;24016;52.102;11.584;2022-09-27T15:17:16;11.00;99.90
38209;DHT22;24016;52.102;11.584;2022-09-27T15:19:59;10.90;99.90
38209;DHT22;24016;52.102;11.584;2022-09-27T15:22:45;10.90;99.90
38209;DHT22;24016;52.102;11.584;2022-09-27T15:25:21;10.90;99.90
38209;DHT22;24016;52.102;11.584;2022-09-27T15:27:50;11.00;99.90
38209;DHT22;24016;52.102;11.584;2022-09-27T15:30:18;11.10;99.90
38209;DHT22;24016;52.102;11.584;2022-09-27T15:32:50;11.20;99.90
38209;DHT22;24016;52.102;11.584;2022-09-27T15:35:21;11.10;99.90
38209;DHT22;24016;52.102;11.584;2022-09-27T15:37:48;11.10;99.90
38209;DHT22;24016;52.102;11.584;2022-09-27T15:42:57;11.00;99.90
38209;DHT22;24016;52.102;11.584;2022-09-27T15:45:31;10.90;99.90
38209;DHT22;24016;52.102;11.584;2022-09-27T15:48:13;10.90;99.90
38209;DHT22;24016;52.102;11.584;2022-09-27T15:50:39;10.80;99.90
38209;DHT22;24016;52.102;11.584;2022-09-27T15:53:07;10.80;99.90
38209;DHT22;24016;52.102;11.584;2022-09-27T15:55:38;10.80;99.90
38209;DHT22;24016;52.102;11.584;2022-09-27T15:58:06;10.80;99.90
38209;DHT22;24016;52.102;11.584;2022-09-27T16:00:33;10.80;99.90
38209;DHT22;24016;52.102;11.584;2022-09-27T16:03:00;10.80;99.90
38209;DHT22;24016;52.102;11.584;2022-09-27T16:05:26;10.90;99.90
38209;DHT22;24016;52.102;11.584;2022-09-27T16:07:53;10.90;99.90
38209;DHT22;24016;52.102;11.584;2022-09-27T16:10:21;10.80;99.90
38209;DHT22;24016;52.102;11.584;2022-09-27T16:12:48;10.80;99.90
38209;DHT22;24016;52.102;11.584;2022-09-27T16:15:15;10.70;99.90
38209;DHT22;24016;52.102;11.584;2022-09-27T16:17:41;10.60;99.90
38209;DHT22;24016;52.102;11.584;2022-09-27T16:20:16;10.60;99.90
38209;DHT22;24016;52.102;11.584;2022-09-27T16:22:42;10.50;99.90
38209;DHT22;24016;52.102;11.584;2022-09-27T16:25:07;10.50;99.90
38209;DHT22;24016;52.102;11.584;2022-09-27T16:27:33;10.40;99.90
38209;DHT22;24016;52.102;11.584;2022-09-27T16:29:59;10.40;99.90
38209;DHT22;24016;52.102;11.584;2022-09-27T16:32:25;10.40;99.90
38209;DHT22;24016;52.102;11.584;2022-09-27T16:34:51;10.50;99.90
38209;DHT22;24016;52.102;11.584;2022-09-27T16:37:16;10.50;99.90
38209;DHT22;24016;52.102;11.584;2022-09-27T16:39:42;10.50;99.90
38209;DHT22;24016;52.102;11.584;2022-09-27T16:42:08;10.50;99.90
38209;DHT22;24016;52.102;11.584;2022-09-27T16:44:33;10.40;99.90
38209;DHT22;24016;52.102;11.584;2022-09-27T16:47:03;10.40;99.90
38209;DHT22;24016;52.102;11.584;2022-09-27T16:49:29;10.30;99.90
38209;DHT22;24016;52.102;11.584;2022-09-27T16:52:13;10.30;99.90
38209;DHT22;24016;52.102;11.584;2022-09-27T16:54:40;10.20;99.90
38209;DHT22;24016;52.102;11.584;2022-09-27T16:57:06;10.20;99.90
38209;DHT22;24016;52.102;11.584;2022-09-27T16:59:32;10.20;99.90
38209;DHT22;24016;52.102;11.584;2022-09-27T17:01:58;10.10;99.90
38209;DHT22;24016;52.102;11.584;2022-09-27T17:04:24;10.00;99.90
38209;DHT22;24016;52.102;11.584;2022-09-27T17:06:50;10.00;99.90
38209;DHT22;24016;52.102;11.584;2022-09-27T17:09:16;9.90;99.90
38209;DHT22;24016;52.102;11.584;2022-09-27T17:11:41;9.90;99.90
38209;DHT22;24016;52.102;11.584;2022-09-27T17:14:10;9.80;99.90
38209;DHT22;24016;52.102;11.584;2022-09-27T17:16:38;9.70;99.90
38209;DHT22;24016;52.102;11.584;2022-09-27T17:19:03;9.70;99.90
38209;DHT22;24016;52.102;11.584;2022-09-27T17:21:29;9.60;99.90
38209;DHT22;24016;52.102;11.584;2022-09-27T17:23:55;9.60;99.90
38209;DHT22;24016;52.102;11.584;2022-09-27T17:26:22;9.50;99.90
38209;DHT22;24016;52.102;11.584;2022-09-27T17:28:48;9.60;99.90
38209;DHT22;24016;52.102;11.584;2022-09-27T17:31:16;9.50;99.90
38209;DHT22;24016;52.102;11.584;2022-09-27T17:33:47;9.50;99.90
38209;DHT22;24016;52.102;11.584;2022-09-27T17:36:19;9.40;99.90
38209;DHT22;24016;52.102;11.584;2022-09-27T17:38:46;9.30;99.90
38209;DHT22;24016;52.102;11.584;2022-09-27T17:41:14;9.30;99.90
38209;DHT22;24016;52.102;11.584;2022-09-27T17:43:42;9.20;99.90
38209;DHT22;24016;52.102;11.584;2022-09-27T17:46:18;9.20;99.90
38209;DHT22;24016;52.102;11.584;2022-09-27T17:48:44;9.10;99.90